sensor_id;sensor_type;location;lat;lon;timestamp;temperature;humidity
16160;DHT22;8185;57.818;15.224;2024-02-23T00:00:31;4.00;99.90
16160;DHT22;8185;57.818;15.224;2024-02-23T00:02:59;4.00;99.90
16160;DHT22;8185;57.818;15.224;2024-02-23T00:05:26;4.00;99.90
16160;DHT22;8185;57.818;15.224;2024-02-23T00:07:53;4.00;99.90
16160;DHT22;8185;57.818;15.224;2024-02-23T00:10:21;4.00;99.90
16160;DHT22;8185;57.818;15.224;2024-02-23T00:12:49;4.00;99.90
16160;DHT22;8185;57.818;15.224;2024-02-23T00:15:17;4.10;99.90
16160;DHT22;8185;57.818;15.224;2024-02-23T00:17:44;4.00;99.90
16160;DHT22;8185;57.818;15.224;2024-02-23T00:20:12;4.00;99.90
16160;DHT22;8185;57.818;15.224;2024-02-23T00:22:40;4.10;99.90
16160;DHT22;8185;57.818;15.224;2024-02-23T00:25:08;4.10;99.90
16160;DHT22;8185;57.818;15.224;2024-02-23T00:27:35;4.10;99.90
16160;DHT22;8185;57.818;15.224;2024-02-23T00:30:06;4.10;99.90
16160;DHT22;8185;57.818;15.224;2024-02-23T00:32:33;4.10;99.90
16160;DHT22;8185;57.818;15.224;2024-02-23T00:35:01;4.10;99.90
16160;DHT22;8185;57.818;15.224;2024-02-23T00:37:28;4.10;99.90
16160;DHT22;8185;57.818;15.224;2024-02-23T00:40:01;4.10;99.90
16160;DHT22;8185;57.818;15.224;2024-02-23T00:42:30;4.10;99.90
16160;DHT22;8185;57.818;15.224;2024-02-23T00:44:57;4.10;99.90
16160;DHT22;8185;57.818;15.224;2024-02-23T00:47:26;4.20;99.90
16160;DHT22;8185;57.818;15.224;2024-02-23T00:49:54;4.20;99.90
16160;DHT22;8185;57.818;15.224;2024-02-23T00:52:21;4.20;99.90
16160;DHT22;8185;57.818;15.224;2024-02-23T00:54:48;4.20;99.90
16160;DHT22;8185;57.818;15.224;2024-02-23T00:57:16;4.20;99.90
16160;DHT22;8185;57.818;15.224;2024-02-23T00:59:47;4.20;99.90
16160;DHT22;8185;57.818;15.224;2024-02-23T01:02:15;4.20;99.90
16160;DHT22;8185;57.818;15.224;2024-02-23T01:04:43;4.20;99.90
16160;DHT22;8185;57.818;15.224;2024-02-23T01:07:11;4.20;99.90
16160;DHT22;8185;57.818;15.224;2024-02-23T01:09:38;4.20;99.90
16160;DHT22;8185;57.818;15.224;2024-02-23T01:12:06;4.20;99.90
16160;DHT22;8185;57.818;15.224;2024-02-23T01:14:33;4.20;99.90
16160;DHT22;8185;57.818;15.224;2024-02-23T01:17:01;4.20;99.90
16160;DHT22;8185;57.818;15.224;2024-02-23T01:19:28;4.20;99.90
16160;DHT22;8185;57.818;15.224;2024-02-23T01:21:57;4.30;99.90
16160;DHT22;8185;57.818;15.224;2024-02-23T01:24:26;4.30;99.90
16160;DHT22;8185;57.818;15.224;2024-02-23T01:26:55;4.30;99.90
16160;DHT22;8185;57.818;15.224;2024-02-23T01:29:24;4.30;99.90
16160;DHT22;8185;57.818;15.224;2024-02-23T01:31:52;4.30;99.90
16160;DHT22;8185;57.818;15.224;2024-02-23T01:34:20;4.30;99.90
16160;DHT22;8185;57.818;15.224;2024-02-23T01:36:47;4.30;99.90
16160;DHT22;8185;57.818;15.224;2024-02-23T01:39:16;4.40;99.90
16160;DHT22;8185;57.818;15.224;2024-02-23T01:41:43;4.40;99.90
16160;DHT22;8185;57.818;15.224;2024-02-23T01:44:11;4.40;99.90
16160;DHT22;8185;57.818;15.224;2024-02-23T01:46:38;4.40;99.90
16160;DHT22;8185;57.818;15.224;2024-02-23T01:49:06;4.40;99.90
16160;DHT22;8185;57.818;15.224;2024-02-23T01:51:35;4.50;99.90
16160;DHT22;8185;57.818;15.224;2024-02-23T01:54:03;4.40;99.90
16160;DHT22;8185;57.818;15.224;2024-02-23T01:56:32;4.40;99.90
16160;DHT22;8185;57.818;15.224;2024-02-23T01:59:03;4.40;99.90
16160;DHT22;8185;57.818;15.224;2024-02-23T02:01:31;4.40;99.90
16160;DHT22;8185;57.818;15.224;2024-02-23T02:03:58;4.50;99.90
16160;DHT22;8185;57.818;15.224;2024-02-23T02:06:26;4.50;99.90
16160;DHT22;8185;57.818;15.224;2024-02-23T02:08:53;4.60;99.90
16160;DHT22;8185;57.818;15.224;2024-02-23T02:11:21;4.50;99.90
16160;DHT22;8185;57.818;15.224;2024-02-23T02:13:50;4.60;99.90
16160;DHT22;8185;57.818;15.224;2024-02-23T02:16:17;4.60;99.90
16160;DHT22;8185;57.818;15.224;2024-02-23T02:18:44;4.60;99.90
16160;DHT22;8185;57.818;15.224;2024-02-23T02:21:12;4.60;99.90
16160;DHT22;8185;57.818;15.224;2024-02-23T02:23:39;4.60;99.90
16160;DHT22;8185;57.818;15.224;2024-02-23T02:26:07;4.60;99.90
16160;DHT22;8185;57.818;15.224;2024-02-23T02:28:34;4.60;99.90
16160;DHT22;8185;57.818;15.224;2024-02-23T02:31:03;4.60;99.90
16160;DHT22;8185;57.818;15.224;2024-02-23T02:33:31;4.60;99.90
16160;DHT22;8185;57.818;15.224;2024-02-23T02:35:58;4.70;99.90
16160;DHT22;8185;57.818;15.224;2024-02-23T02:38:25;4.70;99.90
16160;DHT22;8185;57.818;15.224;2024-02-23T02:40:53;4.70;99.90
16160;DHT22;8185;57.818;15.224;2024-02-23T02:43:20;4.60;99.90
16160;DHT22;8185;57.818;15.224;2024-02-23T02:45:48;4.70;99.90
16160;DHT22;8185;57.818;15.224;2024-02-23T02:48:17;4.70;99.90
16160;DHT22;8185;57.818;15.224;2024-02-23T02:50:44;4.70;99.90
16160;DHT22;8185;57.818;15.224;2024-02-23T02:53:11;4.60;99.90
16160;DHT22;8185;57.818;15.224;2024-02-23T02:55:42;4.70;99.90
16160;DHT22;8185;57.818;15.224;2024-02-23T02:58:10;4.70;99.90
16160;DHT22;8185;57.818;15.224;2024-02-23T03:00:38;4.70;99.90
16160;DHT22;8185;57.818;15.224;2024-02-23T03:03:06;4.70;99.90
16160;DHT22;8185;57.818;15.224;2024-02-23T03:05:35;4.70;99.90
16160;DHT22;8185;57.818;15.224;2024-02-23T03:08:02;4.70;99.90
16160;DHT22;8185;57.818;15.224;2024-02-23T03:10:29;4.70;99.90
16160;DHT22;8185;57.818;15.224;2024-02-23T03:12:57;4.70;99.90
16160;DHT22;8185;57.818;15.224;2024-02-23T03:15:24;4.70;99.90
16160;DHT22;8185;57.818;15.224;2024-02-23T03:17:51;4.70;99.90
16160;DHT22;8185;57.818;15.224;2024-02-23T03:20:20;4.70;99.90
16160;DHT22;8185;57.818;15.224;2024-02-23T03:22:49;4.70;99.90
16160;DHT22;8185;57.818;15.224;2024-02-23T03:25:16;4.70;99.90
16160;DHT22;8185;57.818;15.224;2024-02-23T03:27:43;4.70;99.90
16160;DHT22;8185;57.818;15.224;2024-02-23T03:30:11;4.70;99.90
16160;DHT22;8185;57.818;15.224;2024-02-23T03:32:38;4.80;99.90
16160;DHT22;8185;57.818;15.224;2024-02-23T03:35:07;4.80;99.90
16160;DHT22;8185;57.818;15.224;2024-02-23T03:37:35;4.80;99.90
16160;DHT22;8185;57.818;15.224;2024-02-23T03:40:04;4.80;99.90
16160;DHT22;8185;57.818;15.224;2024-02-23T03:42:32;4.80;99.90
16160;DHT22;8185;57.818;15.224;2024-02-23T03:44:59;4.90;99.90
16160;DHT22;8185;57.818;15.224;2024-02-23T03:47:27;4.90;99.90
16160;DHT22;8185;57.818;15.224;2024-02-23T03:49:54;4.90;99.90
16160;DHT22;8185;57.818;15.224;2024-02-23T03:52:21;4.90;99.90
16160;DHT22;8185;57.818;15.224;2024-02-23T03:54:48;5.00;99.90
16160;DHT22;8185;57.818;15.224;2024-02-23T03:57:19;5.00;99.90
16160;DHT22;8185;57.818;15.224;2024-02-23T03:59:52;5.00;99.90
16160;DHT22;8185;57.818;15.224;2024-02-23T04:02:19;5.00;99.90
16160;DHT22;8185;57.818;15.224;2024-02-23T04:04:48;5.10;99.90
16160;DHT22;8185;57.818;15.224;2024-02-23T04:07:16;5.10;99.90
16160;DHT22;8185;57.818;15.224;2024-02-23T04:09:43;5.10;99.90
16160;DHT22;8185;57.818;15.224;2024-02-23T04:12:11;5.20;99.90
16160;DHT22;8185;57.818;15.224;2024-02-23T04:14:39;5.20;99.90
16160;DHT22;8185;57.818;15.224;2024-02-23T04:17:07;5.20;99.90
16160;DHT22;8185;57.818;15.224;2024-02-23T04:19:34;5.20;99.90
16160;DHT22;8185;57.818;15.224;2024-02-23T04:22:01;5.20;99.90
16160;DHT22;8185;57.818;15.224;2024-02-23T04:24:29;5.30;99.90
16160;DHT22;8185;57.818;15.224;2024-02-23T04:26:56;5.30;99.90
16160;DHT22;8185;57.818;15.224;2024-02-23T04:29:23;5.30;99.90
16160;DHT22;8185;57.818;15.224;2024-02-23T04:31:52;5.30;99.90
16160;DHT22;8185;57.818;15.224;2024-02-23T04:34:19;5.30;99.90
16160;DHT22;8185;57.818;15.224;2024-02-23T04:36:47;5.40;99.90
16160;DHT22;8185;57.818;15.224;2024-02-23T04:39:14;5.50;99.90
16160;DHT22;8185;57.818;15.224;2024-02-23T04:41:41;5.50;99.90
16160;DHT22;8185;57.818;15.224;2024-02-23T04:44:09;5.60;99.90
16160;DHT22;8185;57.818;15.224;2024-02-23T04:46:36;5.50;99.90
16160;DHT22;8185;57.818;15.224;2024-02-23T04:49:05;5.60;99.90
16160;DHT22;8185;57.818;15.224;2024-02-23T04:51:32;5.60;99.90
16160;DHT22;8185;57.818;15.224;2024-02-23T04:53:59;5.60;99.90
16160;DHT22;8185;57.818;15.224;2024-02-23T04:56:27;5.70;99.90
16160;DHT22;8185;57.818;15.224;2024-02-23T04:58:54;5.70;99.90
16160;DHT22;8185;57.818;15.224;2024-02-23T05:01:21;5.70;99.90
16160;DHT22;8185;57.818;15.224;2024-02-23T05:03:49;5.70;99.90
16160;DHT22;8185;57.818;15.224;2024-02-23T05:06:17;5.80;99.90
16160;DHT22;8185;57.818;15.224;2024-02-23T05:08:44;5.80;99.90
16160;DHT22;8185;57.818;15.224;2024-02-23T05:11:14;5.90;99.90
16160;DHT22;8185;57.818;15.224;2024-02-23T05:13:42;5.90;99.90
16160;DHT22;8185;57.818;15.224;2024-02-23T05:16:09;5.90;99.90
16160;DHT22;8185;57.818;15.224;2024-02-23T05:18:36;6.00;99.90
16160;DHT22;8185;57.818;15.224;2024-02-23T05:21:04;6.10;99.90
16160;DHT22;8185;57.818;15.224;2024-02-23T05:23:32;6.10;99.90
16160;DHT22;8185;57.818;15.224;2024-02-23T05:26:00;6.10;99.90
16160;DHT22;8185;57.818;15.224;2024-02-23T05:28:27;6.10;99.90
16160;DHT22;8185;57.818;15.224;2024-02-23T05:30:55;6.20;99.90
16160;DHT22;8185;57.818;15.224;2024-02-23T05:33:22;6.30;99.90
16160;DHT22;8185;57.818;15.224;2024-02-23T05:35:51;6.30;99.90
16160;DHT22;8185;57.818;15.224;2024-02-23T05:38:18;6.30;99.90
16160;DHT22;8185;57.818;15.224;2024-02-23T05:40:47;6.40;99.90
16160;DHT22;8185;57.818;15.224;2024-02-23T05:43:15;6.50;99.90
16160;DHT22;8185;57.818;15.224;2024-02-23T05:45:42;6.50;99.90
16160;DHT22;8185;57.818;15.224;2024-02-23T05:48:11;6.60;99.90
16160;DHT22;8185;57.818;15.224;2024-02-23T05:50:38;6.70;99.90
16160;DHT22;8185;57.818;15.224;2024-02-23T05:53:06;6.60;99.90
16160;DHT22;8185;57.818;15.224;2024-02-23T05:55:33;6.80;99.90
16160;DHT22;8185;57.818;15.224;2024-02-23T05:58:02;6.80;99.90
16160;DHT22;8185;57.818;15.224;2024-02-23T06:00:31;6.80;99.90
16160;DHT22;8185;57.818;15.224;2024-02-23T06:02:58;6.90;99.90
16160;DHT22;8185;57.818;15.224;2024-02-23T06:05:25;6.80;99.90
16160;DHT22;8185;57.818;15.224;2024-02-23T06:07:53;6.80;99.90
16160;DHT22;8185;57.818;15.224;2024-02-23T06:10:20;6.80;99.90
16160;DHT22;8185;57.818;15.224;2024-02-23T06:12:48;6.80;99.90
16160;DHT22;8185;57.818;15.224;2024-02-23T06:15:16;6.80;99.90
16160;DHT22;8185;57.818;15.224;2024-02-23T06:17:44;6.80;99.90
16160;DHT22;8185;57.818;15.224;2024-02-23T06:20:12;6.80;99.90
16160;DHT22;8185;57.818;15.224;2024-02-23T06:22:39;6.80;99.90
16160;DHT22;8185;57.818;15.224;2024-02-23T06:25:07;6.70;99.90
16160;DHT22;8185;57.818;15.224;2024-02-23T06:27:36;6.60;99.90
16160;DHT22;8185;57.818;15.224;2024-02-23T06:30:04;6.50;99.90
16160;DHT22;8185;57.818;15.224;2024-02-23T06:32:33;6.50;99.90
16160;DHT22;8185;57.818;15.224;2024-02-23T06:35:00;6.30;99.90
16160;DHT22;8185;57.818;15.224;2024-02-23T06:37:28;6.30;99.90
16160;DHT22;8185;57.818;15.224;2024-02-23T06:39:56;6.20;99.90
16160;DHT22;8185;57.818;15.224;2024-02-23T06:42:23;6.10;99.90
16160;DHT22;8185;57.818;15.224;2024-02-23T06:44:50;6.20;99.90
16160;DHT22;8185;57.818;15.224;2024-02-23T06:47:17;6.00;99.90
16160;DHT22;8185;57.818;15.224;2024-02-23T06:49:45;5.90;99.90
16160;DHT22;8185;57.818;15.224;2024-02-23T06:52:12;5.80;99.90
16160;DHT22;8185;57.818;15.224;2024-02-23T06:54:40;5.80;99.90
16160;DHT22;8185;57.818;15.224;2024-02-23T06:57:07;5.50;99.90
16160;DHT22;8185;57.818;15.224;2024-02-23T06:59:34;5.40;99.90
16160;DHT22;8185;57.818;15.224;2024-02-23T07:02:02;5.40;99.90
16160;DHT22;8185;57.818;15.224;2024-02-23T07:04:30;5.40;99.90
16160;DHT22;8185;57.818;15.224;2024-02-23T07:06:59;5.30;99.90
16160;DHT22;8185;57.818;15.224;2024-02-23T07:09:32;5.40;99.90
16160;DHT22;8185;57.818;15.224;2024-02-23T07:12:00;5.40;99.90
16160;DHT22;8185;57.818;15.224;2024-02-23T07:14:27;5.40;99.90
16160;DHT22;8185;57.818;15.224;2024-02-23T07:16:54;5.40;99.90
16160;DHT22;8185;57.818;15.224;2024-02-23T07:19:22;5.30;99.90
16160;DHT22;8185;57.818;15.224;2024-02-23T07:21:49;5.20;99.90
16160;DHT22;8185;57.818;15.224;2024-02-23T07:24:18;5.70;99.90
16160;DHT22;8185;57.818;15.224;2024-02-23T07:26:45;5.10;99.90
16160;DHT22;8185;57.818;15.224;2024-02-23T07:29:12;5.20;99.90
16160;DHT22;8185;57.818;15.224;2024-02-23T07:31:39;5.10;99.90
16160;DHT22;8185;57.818;15.224;2024-02-23T07:34:07;5.20;99.90
16160;DHT22;8185;57.818;15.224;2024-02-23T07:36:34;5.20;99.90
16160;DHT22;8185;57.818;15.224;2024-02-23T07:39:02;5.20;99.90
16160;DHT22;8185;57.818;15.224;2024-02-23T07:41:32;5.20;99.90
16160;DHT22;8185;57.818;15.224;2024-02-23T07:44:00;5.20;99.90
16160;DHT22;8185;57.818;15.224;2024-02-23T07:46:27;5.20;99.90
16160;DHT22;8185;57.818;15.224;2024-02-23T07:48:55;5.20;99.90
16160;DHT22;8185;57.818;15.224;2024-02-23T07:51:22;5.20;99.90
16160;DHT22;8185;57.818;15.224;2024-02-23T07:53:49;5.20;99.90
16160;DHT22;8185;57.818;15.224;2024-02-23T07:56:17;5.20;99.90
16160;DHT22;8185;57.818;15.224;2024-02-23T07:58:45;5.30;99.90
16160;DHT22;8185;57.818;15.224;2024-02-23T08:01:14;5.30;99.90
16160;DHT22;8185;57.818;15.224;2024-02-23T08:03:41;5.20;99.90
16160;DHT22;8185;57.818;15.224;2024-02-23T08:06:09;5.20;99.90
16160;DHT22;8185;57.818;15.224;2024-02-23T08:08:36;5.20;99.90
16160;DHT22;8185;57.818;15.224;2024-02-23T08:11:04;5.10;99.90
16160;DHT22;8185;57.818;15.224;2024-02-23T08:13:31;4.90;99.90
16160;DHT22;8185;57.818;15.224;2024-02-23T08:16:00;4.90;99.90
16160;DHT22;8185;57.818;15.224;2024-02-23T08:18:28;5.00;99.90
16160;DHT22;8185;57.818;15.224;2024-02-23T08:20:55;4.90;99.90
16160;DHT22;8185;57.818;15.224;2024-02-23T08:23:23;4.80;99.90
16160;DHT22;8185;57.818;15.224;2024-02-23T08:25:51;4.90;99.90
16160;DHT22;8185;57.818;15.224;2024-02-23T08:28:19;5.10;99.90
16160;DHT22;8185;57.818;15.224;2024-02-23T08:30:46;5.20;99.90
16160;DHT22;8185;57.818;15.224;2024-02-23T08:33:15;5.20;99.90
16160;DHT22;8185;57.818;15.224;2024-02-23T08:35:43;5.20;99.90
16160;DHT22;8185;57.818;15.224;2024-02-23T08:38:10;5.20;99.90
16160;DHT22;8185;57.818;15.224;2024-02-23T08:40:38;5.10;99.90
16160;DHT22;8185;57.818;15.224;2024-02-23T08:43:05;5.20;99.90
16160;DHT22;8185;57.818;15.224;2024-02-23T08:45:32;5.30;99.90
16160;DHT22;8185;57.818;15.224;2024-02-23T08:48:00;5.50;99.90
16160;DHT22;8185;57.818;15.224;2024-02-23T08:50:29;5.40;99.90
16160;DHT22;8185;57.818;15.224;2024-02-23T08:52:56;5.40;99.90
16160;DHT22;8185;57.818;15.224;2024-02-23T08:55:24;5.50;99.90
16160;DHT22;8185;57.818;15.224;2024-02-23T08:57:51;5.60;99.90
16160;DHT22;8185;57.818;15.224;2024-02-23T09:00:19;5.60;99.90
16160;DHT22;8185;57.818;15.224;2024-02-23T09:02:46;5.60;99.90
16160;DHT22;8185;57.818;15.224;2024-02-23T09:05:16;5.60;99.90
16160;DHT22;8185;57.818;15.224;2024-02-23T09:07:44;5.60;99.90
16160;DHT22;8185;57.818;15.224;2024-02-23T09:10:12;5.50;99.90
16160;DHT22;8185;57.818;15.224;2024-02-23T09:12:39;5.50;99.90
16160;DHT22;8185;57.818;15.224;2024-02-23T09:15:07;5.50;99.90
16160;DHT22;8185;57.818;15.224;2024-02-23T09:17:35;5.60;99.90
16160;DHT22;8185;57.818;15.224;2024-02-23T09:20:02;5.70;99.90
16160;DHT22;8185;57.818;15.224;2024-02-23T09:22:30;5.70;99.90
16160;DHT22;8185;57.818;15.224;2024-02-23T09:24:58;5.80;99.90
16160;DHT22;8185;57.818;15.224;2024-02-23T09:27:25;6.00;99.90
16160;DHT22;8185;57.818;15.224;2024-02-23T09:29:53;5.90;99.90
16160;DHT22;8185;57.818;15.224;2024-02-23T09:32:20;5.90;99.90
16160;DHT22;8185;57.818;15.224;2024-02-23T09:34:48;5.90;99.90
16160;DHT22;8185;57.818;15.224;2024-02-23T09:37:15;6.00;99.90
16160;DHT22;8185;57.818;15.224;2024-02-23T09:39:42;6.00;99.90
16160;DHT22;8185;57.818;15.224;2024-02-23T09:42:11;6.00;99.90
16160;DHT22;8185;57.818;15.224;2024-02-23T09:44:39;6.00;99.90
16160;DHT22;8185;57.818;15.224;2024-02-23T09:47:09;6.00;99.90
16160;DHT22;8185;57.818;15.224;2024-02-23T09:49:38;5.90;99.90
16160;DHT22;8185;57.818;15.224;2024-02-23T09:52:08;5.90;99.90
16160;DHT22;8185;57.818;15.224;2024-02-23T09:54:37;6.00;99.90
16160;DHT22;8185;57.818;15.224;2024-02-23T09:57:07;6.10;99.90
16160;DHT22;8185;57.818;15.224;2024-02-23T09:59:36;6.00;99.90
16160;DHT22;8185;57.818;15.224;2024-02-23T10:02:07;6.10;99.90
16160;DHT22;8185;57.818;15.224;2024-02-23T10:04:36;6.10;99.90
16160;DHT22;8185;57.818;15.224;2024-02-23T10:07:04;6.30;99.90
16160;DHT22;8185;57.818;15.224;2024-02-23T10:09:32;6.40;99.90
16160;DHT22;8185;57.818;15.224;2024-02-23T10:12:00;6.40;99.90
16160;DHT22;8185;57.818;15.224;2024-02-23T10:14:28;6.30;99.90
16160;DHT22;8185;57.818;15.224;2024-02-23T10:16:56;6.40;99.90
16160;DHT22;8185;57.818;15.224;2024-02-23T10:19:24;6.40;99.90
16160;DHT22;8185;57.818;15.224;2024-02-23T10:21:54;6.30;99.90
16160;DHT22;8185;57.818;15.224;2024-02-23T10:24:22;6.30;99.90
16160;DHT22;8185;57.818;15.224;2024-02-23T10:26:49;6.40;99.90
16160;DHT22;8185;57.818;15.224;2024-02-23T10:29:16;6.50;99.90
16160;DHT22;8185;57.818;15.224;2024-02-23T10:31:47;6.50;99.90
16160;DHT22;8185;57.818;15.224;2024-02-23T10:34:17;6.70;99.90
16160;DHT22;8185;57.818;15.224;2024-02-23T10:36:46;6.50;99.90
16160;DHT22;8185;57.818;15.224;2024-02-23T10:39:17;6.40;99.90
16160;DHT22;8185;57.818;15.224;2024-02-23T10:41:47;6.70;99.90
16160;DHT22;8185;57.818;15.224;2024-02-23T10:44:20;6.70;99.90
16160;DHT22;8185;57.818;15.224;2024-02-23T10:46:49;6.60;99.90
16160;DHT22;8185;57.818;15.224;2024-02-23T10:49:19;6.50;99.90
16160;DHT22;8185;57.818;15.224;2024-02-23T10:51:51;6.50;99.90
16160;DHT22;8185;57.818;15.224;2024-02-23T10:54:19;6.50;99.90
16160;DHT22;8185;57.818;15.224;2024-02-23T10:56:48;6.50;99.90
16160;DHT22;8185;57.818;15.224;2024-02-23T10:59:15;6.70;99.90
16160;DHT22;8185;57.818;15.224;2024-02-23T11:01:44;7.00;99.90
16160;DHT22;8185;57.818;15.224;2024-02-23T11:04:12;7.20;99.90
16160;DHT22;8185;57.818;15.224;2024-02-23T11:06:41;7.50;99.90
16160;DHT22;8185;57.818;15.224;2024-02-23T11:09:12;7.90;99.90
16160;DHT22;8185;57.818;15.224;2024-02-23T11:11:40;7.40;99.90
16160;DHT22;8185;57.818;15.224;2024-02-23T11:14:17;7.40;99.90
16160;DHT22;8185;57.818;15.224;2024-02-23T11:16:44;7.20;99.90
16160;DHT22;8185;57.818;15.224;2024-02-23T11:19:19;6.70;99.90
16160;DHT22;8185;57.818;15.224;2024-02-23T11:21:52;6.60;99.90
16160;DHT22;8185;57.818;15.224;2024-02-23T11:24:20;6.60;99.90
16160;DHT22;8185;57.818;15.224;2024-02-23T11:26:48;6.60;99.90
16160;DHT22;8185;57.818;15.224;2024-02-23T11:29:16;6.60;99.90
16160;DHT22;8185;57.818;15.224;2024-02-23T11:31:46;6.70;99.90
16160;DHT22;8185;57.818;15.224;2024-02-23T11:34:22;6.70;99.90
16160;DHT22;8185;57.818;15.224;2024-02-23T11:36:52;6.70;99.90
16160;DHT22;8185;57.818;15.224;2024-02-23T11:39:20;6.80;99.90
16160;DHT22;8185;57.818;15.224;2024-02-23T11:41:48;6.60;99.90
16160;DHT22;8185;57.818;15.224;2024-02-23T11:44:16;6.80;99.90
16160;DHT22;8185;57.818;15.224;2024-02-23T11:46:44;6.70;99.90
16160;DHT22;8185;57.818;15.224;2024-02-23T11:49:12;6.70;99.90
16160;DHT22;8185;57.818;15.224;2024-02-23T11:51:40;6.50;99.90
16160;DHT22;8185;57.818;15.224;2024-02-23T11:54:09;6.50;99.90
16160;DHT22;8185;57.818;15.224;2024-02-23T11:56:36;6.60;99.90
16160;DHT22;8185;57.818;15.224;2024-02-23T11:59:04;6.70;99.90
16160;DHT22;8185;57.818;15.224;2024-02-23T12:01:31;6.70;99.90
16160;DHT22;8185;57.818;15.224;2024-02-23T12:03:59;6.60;99.90
16160;DHT22;8185;57.818;15.224;2024-02-23T12:06:27;6.50;99.90
16160;DHT22;8185;57.818;15.224;2024-02-23T12:08:58;6.60;99.90
16160;DHT22;8185;57.818;15.224;2024-02-23T12:11:27;6.50;99.90
16160;DHT22;8185;57.818;15.224;2024-02-23T12:13:55;6.50;99.90
16160;DHT22;8185;57.818;15.224;2024-02-23T12:16:23;6.60;99.90
16160;DHT22;8185;57.818;15.224;2024-02-23T12:18:53;6.60;99.90
16160;DHT22;8185;57.818;15.224;2024-02-23T12:21:23;6.50;99.90
16160;DHT22;8185;57.818;15.224;2024-02-23T12:23:51;6.60;99.90
16160;DHT22;8185;57.818;15.224;2024-02-23T12:26:19;6.40;99.90
16160;DHT22;8185;57.818;15.224;2024-02-23T12:28:48;6.50;99.90
16160;DHT22;8185;57.818;15.224;2024-02-23T12:31:15;6.50;99.90
16160;DHT22;8185;57.818;15.224;2024-02-23T12:33:43;6.60;99.90
16160;DHT22;8185;57.818;15.224;2024-02-23T12:36:14;6.40;99.90
16160;DHT22;8185;57.818;15.224;2024-02-23T12:38:42;6.30;99.90
16160;DHT22;8185;57.818;15.224;2024-02-23T12:41:10;6.30;99.90
16160;DHT22;8185;57.818;15.224;2024-02-23T12:43:37;6.30;99.90
16160;DHT22;8185;57.818;15.224;2024-02-23T12:46:06;6.40;99.90
16160;DHT22;8185;57.818;15.224;2024-02-23T12:48:34;6.30;99.90
16160;DHT22;8185;57.818;15.224;2024-02-23T12:51:02;6.30;99.90
16160;DHT22;8185;57.818;15.224;2024-02-23T12:53:34;6.20;99.90
16160;DHT22;8185;57.818;15.224;2024-02-23T12:56:03;6.20;99.90
16160;DHT22;8185;57.818;15.224;2024-02-23T12:58:31;6.20;99.90
16160;DHT22;8185;57.818;15.224;2024-02-23T13:00:58;5.80;99.90
16160;DHT22;8185;57.818;15.224;2024-02-23T13:03:28;5.50;99.90
16160;DHT22;8185;57.818;15.224;2024-02-23T13:05:55;5.30;99.90
16160;DHT22;8185;57.818;15.224;2024-02-23T13:08:23;5.20;99.90
16160;DHT22;8185;57.818;15.224;2024-02-23T13:10:52;5.40;99.90
16160;DHT22;8185;57.818;15.224;2024-02-23T13:13:19;5.50;99.90
16160;DHT22;8185;57.818;15.224;2024-02-23T13:15:48;5.60;99.90
16160;DHT22;8185;57.818;15.224;2024-02-23T13:18:15;5.70;99.90
16160;DHT22;8185;57.818;15.224;2024-02-23T13:20:44;5.70;99.90
16160;DHT22;8185;57.818;15.224;2024-02-23T13:23:12;5.60;99.90
16160;DHT22;8185;57.818;15.224;2024-02-23T13:25:41;5.50;99.90
16160;DHT22;8185;57.818;15.224;2024-02-23T13:28:09;5.40;99.90
16160;DHT22;8185;57.818;15.224;2024-02-23T13:30:37;5.20;99.90
16160;DHT22;8185;57.818;15.224;2024-02-23T13:33:05;5.30;99.90
16160;DHT22;8185;57.818;15.224;2024-02-23T13:35:34;5.50;99.90
16160;DHT22;8185;57.818;15.224;2024-02-23T13:38:03;5.60;99.90
16160;DHT22;8185;57.818;15.224;2024-02-23T13:40:30;5.80;99.90
16160;DHT22;8185;57.818;15.224;2024-02-23T13:42:58;5.80;99.90
16160;DHT22;8185;57.818;15.224;2024-02-23T13:45:25;5.90;99.90
16160;DHT22;8185;57.818;15.224;2024-02-23T13:47:56;5.90;99.90
16160;DHT22;8185;57.818;15.224;2024-02-23T13:50:24;6.00;99.90
16160;DHT22;8185;57.818;15.224;2024-02-23T13:52:52;6.00;99.90
16160;DHT22;8185;57.818;15.224;2024-02-23T13:55:21;6.10;99.90
16160;DHT22;8185;57.818;15.224;2024-02-23T13:57:48;6.10;99.90
16160;DHT22;8185;57.818;15.224;2024-02-23T14:00:16;6.20;99.90
16160;DHT22;8185;57.818;15.224;2024-02-23T14:02:44;6.10;99.90
16160;DHT22;8185;57.818;15.224;2024-02-23T14:05:12;5.90;99.90
16160;DHT22;8185;57.818;15.224;2024-02-23T14:07:41;5.90;99.90
16160;DHT22;8185;57.818;15.224;2024-02-23T14:10:08;5.90;99.90
16160;DHT22;8185;57.818;15.224;2024-02-23T14:12:37;5.90;99.90
16160;DHT22;8185;57.818;15.224;2024-02-23T14:15:05;6.10;99.90
16160;DHT22;8185;57.818;15.224;2024-02-23T14:17:32;6.20;99.90
16160;DHT22;8185;57.818;15.224;2024-02-23T14:20:00;6.10;99.90
16160;DHT22;8185;57.818;15.224;2024-02-23T14:22:28;6.10;99.90
16160;DHT22;8185;57.818;15.224;2024-02-23T14:24:55;6.10;99.90
16160;DHT22;8185;57.818;15.224;2024-02-23T14:27:24;6.00;99.90
16160;DHT22;8185;57.818;15.224;2024-02-23T14:29:54;5.90;99.90
16160;DHT22;8185;57.818;15.224;2024-02-23T14:32:22;5.90;99.90
16160;DHT22;8185;57.818;15.224;2024-02-23T14:34:49;6.20;99.90
16160;DHT22;8185;57.818;15.224;2024-02-23T14:37:18;6.30;99.90
16160;DHT22;8185;57.818;15.224;2024-02-23T14:39:45;6.30;99.90
16160;DHT22;8185;57.818;15.224;2024-02-23T14:42:12;6.10;99.90
16160;DHT22;8185;57.818;15.224;2024-02-23T14:44:40;6.20;99.90
16160;DHT22;8185;57.818;15.224;2024-02-23T14:47:09;5.90;99.90
16160;DHT22;8185;57.818;15.224;2024-02-23T14:49:36;5.90;99.90
16160;DHT22;8185;57.818;15.224;2024-02-23T14:52:04;5.80;99.90
16160;DHT22;8185;57.818;15.224;2024-02-23T14:54:32;5.70;99.90
16160;DHT22;8185;57.818;15.224;2024-02-23T14:57:00;5.80;99.90
16160;DHT22;8185;57.818;15.224;2024-02-23T14:59:27;5.70;99.90
16160;DHT22;8185;57.818;15.224;2024-02-23T15:01:54;5.70;99.90
16160;DHT22;8185;57.818;15.224;2024-02-23T15:04:23;5.70;99.90
16160;DHT22;8185;57.818;15.224;2024-02-23T15:06:51;5.70;99.90
16160;DHT22;8185;57.818;15.224;2024-02-23T15:09:18;5.60;99.90
16160;DHT22;8185;57.818;15.224;2024-02-23T15:11:45;5.60;99.90
16160;DHT22;8185;57.818;15.224;2024-02-23T15:14:13;5.60;99.90
16160;DHT22;8185;57.818;15.224;2024-02-23T15:16:41;5.60;99.90
16160;DHT22;8185;57.818;15.224;2024-02-23T15:19:08;5.60;99.90
16160;DHT22;8185;57.818;15.224;2024-02-23T15:21:38;5.60;99.90
16160;DHT22;8185;57.818;15.224;2024-02-23T15:24:07;5.50;99.90
16160;DHT22;8185;57.818;15.224;2024-02-23T15:26:34;5.50;99.90
16160;DHT22;8185;57.818;15.224;2024-02-23T15:29:01;5.50;99.90
16160;DHT22;8185;57.818;15.224;2024-02-23T15:31:30;5.40;99.90
16160;DHT22;8185;57.818;15.224;2024-02-23T15:33:57;5.40;99.90
16160;DHT22;8185;57.818;15.224;2024-02-23T15:36:25;5.40;99.90
16160;DHT22;8185;57.818;15.224;2024-02-23T15:38:55;5.40;99.90
16160;DHT22;8185;57.818;15.224;2024-02-23T15:41:25;5.30;99.90
16160;DHT22;8185;57.818;15.224;2024-02-23T15:43:52;5.30;99.90
16160;DHT22;8185;57.818;15.224;2024-02-23T15:46:20;5.30;99.90
16160;DHT22;8185;57.818;15.224;2024-02-23T15:48:47;5.20;99.90